CYYJ

Victoria International Airport

Victoria, , Canada
METAR CYYJ 131100Z 15013G19KT 8SM -RA FEW006 FEW013 SCT030 BKN044 OVC066 07/06 A2992 RMK SF1SC1SC3SC3AC1 SF TR SLP132
Observed Flight Rules
Dec-13 @ 11:00 UTC (49 minutes ago) Visual Flight Rules
Wind Visibility Clouds Conditions
150° at 13 knots
 Gusting to 19 knots
8 miles
  • Few at 600' AGL
  • Few at 1,300' AGL
  • Scattered at 3,000' AGL
  • Broken at 4,400' AGL
  • Light Rain
Temperatures Readings
Current 7°C / 45°F
Dewpoint 6°C / 43°F
Humidity 93%
Altimeter 29.92" Hg
Pressure 1013.2 hPa
Elevation 19
METAR CYYJ 131100Z 15013G19KT 8SM -RA FEW006 FEW013 SCT030 BKN044 OVC066 07/06 A2992 RMK SF1SC1SC3SC3AC1 SF TR SLP132
Observed Flight Rules
Dec-13 @ 11:00 UTC
(49 minutes ago)
VFR
Wind Visibility
150° at 13 knots
 Gusting to 19 knots
8 miles
Clouds
  • Few at 600' AGL
  • Few at 1,300' AGL
  • Scattered at 3,000' AGL
  • Broken at 4,400' AGL
Conditions
  • Light Rain
Temperature Dewpoint
7°C / 45°F 6°C / 43°F
Humidity Altimeter Pressure
93% 29.92" Hg 1013.2 hPa